Time;durP1;ratioP1;P1;durP2;ratioP2;P2;SDS_P1;SDS_P2;PMS_P1;PMS_P2;Temp;Humidity;BMP_temperature;BMP_pressure;BME280_temperature;BME280_humidity;BME280_pressure;Samples;Min_cycle;Max_cycle;Signal;HPM_P1;HPM_P2
2021/05/30 00:01:03;;;;;;;16.53;12.43;;;10.60;99.90;;;;;;5095981;28;20279;-65
2021/05/30 00:03:31;;;;;;;13.27;11.43;;;10.60;99.90;;;;;;5096414;28;20592;-66
2021/05/30 00:05:59;;;;;;;14.53;13.00;;;10.50;99.90;;;;;;5096089;28;20656;-66
2021/05/30 00:08:26;;;;;;;14.47;12.80;;;10.50;99.90;;;;;;5095895;28;20542;-66
2021/05/30 00:10:54;;;;;;;15.03;11.80;;;10.30;99.90;;;;;;5055297;28;20197;-65
2021/05/30 00:13:21;;;;;;;17.57;13.37;;;10.20;99.90;;;;;;5055662;28;20643;-66
2021/05/30 00:15:50;;;;;;;16.67;12.80;;;10.20;99.90;;;;;;5055666;28;20222;-66
2021/05/30 00:18:17;;;;;;;16.67;13.30;;;10.20;99.90;;;;;;5055833;28;20217;-66
2021/05/30 00:20:44;;;;;;;17.83;12.70;;;10.20;99.90;;;;;;5055839;28;20197;-66
2021/05/30 00:23:12;;;;;;;15.10;12.50;;;10.10;99.90;;;;;;5055695;28;20197;-66
2021/05/30 00:25:39;;;;;;;16.97;12.80;;;10.00;99.90;;;;;;5055664;28;20292;-66
2021/05/30 00:28:09;;;;;;;17.57;12.53;;;10.00;99.90;;;;;;5055781;28;20204;-65
2021/05/30 00:30:36;;;;;;;15.17;12.70;;;10.10;99.90;;;;;;5055523;28;20201;-66
2021/05/30 00:33:05;;;;;;;19.60;14.83;;;10.00;99.90;;;;;;5055709;28;20201;-65
2021/05/30 00:35:32;;;;;;;15.47;12.83;;;10.00;99.90;;;;;;5055443;28;20217;-65
2021/05/30 00:38:00;;;;;;;17.90;13.17;;;10.10;99.90;;;;;;5055335;28;20308;-64
2021/05/30 00:40:27;;;;;;;19.77;13.87;;;10.10;99.90;;;;;;5071560;28;20211;-65
2021/05/30 00:42:54;;;;;;;18.50;13.70;;;10.10;99.90;;;;;;5075213;28;20200;-66
2021/05/30 00:45:22;;;;;;;17.00;13.27;;;10.00;99.90;;;;;;5082929;28;20204;-66
2021/05/30 00:47:49;;;;;;;18.07;13.57;;;10.00;99.90;;;;;;5095778;28;20196;-66
2021/05/30 00:50:17;;;;;;;17.57;13.40;;;9.90;99.90;;;;;;5083205;28;20296;-65
2021/05/30 00:52:45;;;;;;;18.30;13.30;;;9.90;99.90;;;;;;5074720;28;20228;-66
2021/05/30 00:55:13;;;;;;;15.43;12.93;;;9.80;99.90;;;;;;5074905;28;20312;-66
2021/05/30 00:57:41;;;;;;;16.63;13.23;;;9.70;99.90;;;;;;5074656;28;20204;-65
2021/05/30 01:00:12;;;;;;;15.97;13.10;;;9.80;99.90;;;;;;5074999;28;20205;-65
2021/05/30 01:02:39;;;;;;;18.40;13.77;;;9.60;99.90;;;;;;5074924;28;20688;-65
2021/05/30 01:05:09;;;;;;;18.70;13.23;;;9.60;99.90;;;;;;5074035;28;20556;-67
2021/05/30 01:07:41;;;;;;;15.57;13.00;;;9.60;99.90;;;;;;5074958;28;20201;-66
2021/05/30 01:10:25;;;;;;;21.40;13.77;;;9.60;99.90;;;;;;5074488;28;20647;-65
2021/05/30 01:12:53;;;;;;;18.57;15.53;;;9.60;99.90;;;;;;5074981;28;20207;-66
2021/05/30 01:15:21;;;;;;;19.30;14.10;;;9.60;99.90;;;;;;5075227;28;20259;-65
2021/05/30 01:17:51;;;;;;;19.17;14.03;;;9.50;99.90;;;;;;5074819;28;20207;-65
2021/05/30 01:20:19;;;;;;;16.13;13.30;;;9.50;99.90;;;;;;5074693;28;20641;-66
2021/05/30 01:22:48;;;;;;;16.73;13.27;;;9.50;99.90;;;;;;5074652;28;20197;-65
2021/05/30 01:25:19;;;;;;;19.53;14.10;;;9.30;99.90;;;;;;5074369;28;20295;-65
2021/05/30 01:27:47;;;;;;;18.10;14.33;;;9.30;99.90;;;;;;5073794;28;20200;-65
2021/05/30 01:30:16;;;;;;;18.83;14.40;;;9.30;99.90;;;;;;5074325;28;20224;-66
2021/05/30 01:32:44;;;;;;;20.40;14.23;;;9.30;99.90;;;;;;5074224;28;20235;-65
2021/05/30 01:35:13;;;;;;;20.70;15.03;;;9.20;99.90;;;;;;5074396;28;20291;-66
2021/05/30 01:37:41;;;;;;;19.30;14.30;;;9.30;99.90;;;;;;5074397;28;20293;-65
2021/05/30 01:40:10;;;;;;;20.93;14.40;;;9.30;99.90;;;;;;5074092;28;20204;-66
2021/05/30 01:42:38;;;;;;;20.87;14.77;;;9.40;99.90;;;;;;5074158;28;20200;-66
2021/05/30 01:45:07;;;;;;;18.37;14.80;;;9.30;99.90;;;;;;5079946;28;20233;-64
2021/05/30 01:47:37;;;;;;;19.73;14.93;;;9.30;99.90;;;;;;5094353;28;20279;-65
2021/05/30 01:50:07;;;;;;;19.80;14.87;;;9.10;99.90;;;;;;5094467;28;20184;-67
2021/05/30 01:52:34;;;;;;;19.07;15.00;;;9.10;99.90;;;;;;5093830;28;20228;-64
2021/05/30 01:55:02;;;;;;;20.10;15.23;;;9.00;99.90;;;;;;5094068;28;20207;-66
2021/05/30 01:57:31;;;;;;;21.13;16.37;;;9.20;99.90;;;;;;5080840;28;20227;-65
2021/05/30 01:59:59;;;;;;;23.53;16.37;;;9.20;99.90;;;;;;5073815;28;20283;-66
2021/05/30 02:02:28;;;;;;;19.60;15.87;;;9.30;99.90;;;;;;5073599;28;20209;-65
2021/05/30 02:04:55;;;;;;;20.57;15.27;;;9.30;99.90;;;;;;5073845;28;20223;-66
2021/05/30 02:07:23;;;;;;;22.50;15.57;;;9.30;99.90;;;;;;5073315;28;20201;-67
2021/05/30 02:09:50;;;;;;;20.50;15.37;;;9.30;99.90;;;;;;5073568;28;20197;-65
2021/05/30 02:12:18;;;;;;;19.03;14.83;;;9.20;99.90;;;;;;5073405;28;20786;-65
2021/05/30 02:14:46;;;;;;;21.07;16.00;;;9.10;99.90;;;;;;5073632;28;20236;-66
2021/05/30 02:17:14;;;;;;;20.27;14.97;;;9.20;99.90;;;;;;5072953;28;20722;-66
2021/05/30 02:19:42;;;;;;;22.23;16.63;;;9.30;99.90;;;;;;5073145;28;20209;-68
2021/05/30 02:22:09;;;;;;;21.57;15.77;;;9.30;99.90;;;;;;5073353;28;20283;-66
2021/05/30 02:24:36;;;;;;;21.93;16.03;;;9.20;99.90;;;;;;5072638;28;20207;-66
2021/05/30 02:27:04;;;;;;;19.80;15.37;;;9.20;99.90;;;;;;5073426;28;20197;-66
2021/05/30 02:29:36;;;;;;;20.87;15.43;;;9.10;99.90;;;;;;5073588;28;20204;-65
2021/05/30 02:32:05;;;;;;;22.97;16.33;;;9.10;99.90;;;;;;5073217;28;20191;-65
2021/05/30 02:34:34;;;;;;;23.13;15.90;;;9.10;99.90;;;;;;5073298;28;20255;-66
2021/05/30 02:37:03;;;;;;;19.37;14.40;;;9.10;99.90;;;;;;5072630;28;20580;-66
2021/05/30 02:39:30;;;;;;;25.03;16.43;;;9.10;99.90;;;;;;5072620;28;20203;-65
2021/05/30 02:41:58;;;;;;;19.43;13.80;;;9.10;99.90;;;;;;5073530;28;20196;-66
2021/05/30 02:44:25;;;;;;;20.47;15.33;;;9.10;99.90;;;;;;5073679;28;20291;-66
2021/05/30 02:46:52;;;;;;;21.77;16.13;;;8.90;99.90;;;;;;5093117;28;20206;-65
2021/05/30 02:49:20;;;;;;;22.60;16.50;;;8.90;99.90;;;;;;5093054;28;20204;-66
2021/05/30 02:51:48;;;;;;;23.03;16.57;;;8.90;99.90;;;;;;5092945;28;20230;-66
2021/05/30 02:54:15;;;;;;;21.37;15.03;;;8.90;99.90;;;;;;5093233;28;20629;-66
2021/05/30 02:56:43;;;;;;;22.67;15.93;;;8.90;99.90;;;;;;5093139;28;20226;-67
2021/05/30 02:59:10;;;;;;;20.23;15.80;;;8.90;99.90;;;;;;5093288;28;20200;-66
2021/05/30 03:01:37;;;;;;;21.93;15.23;;;8.90;99.90;;;;;;5092732;28;20210;-67
2021/05/30 03:04:05;;;;;;;19.33;14.80;;;8.90;99.90;;;;;;5092850;28;20679;-66
2021/05/30 03:06:33;;;;;;;21.93;16.17;;;8.90;99.90;;;;;;5092837;28;20686;-66
2021/05/30 03:09:01;;;;;;;19.67;15.53;;;8.90;99.90;;;;;;5092914;28;20290;-65
2021/05/30 03:11:29;;;;;;;21.47;14.87;;;8.80;99.90;;;;;;5093020;28;20223;-66
2021/05/30 03:13:57;;;;;;;22.13;14.73;;;8.80;99.90;;;;;;5093045;28;20223;-66
2021/05/30 03:16:25;;;;;;;21.27;15.27;;;8.80;99.90;;;;;;5092714;28;20350;-66
2021/05/30 03:18:53;;;;;;;20.20;15.93;;;8.80;99.90;;;;;;5092914;28;20203;-67
2021/05/30 03:21:20;;;;;;;20.53;15.03;;;8.80;99.90;;;;;;5092786;28;20206;-66
2021/05/30 03:23:47;;;;;;;22.73;16.57;;;8.80;99.90;;;;;;5092884;28;20202;-66
2021/05/30 03:26:15;;;;;;;18.50;14.73;;;8.70;99.90;;;;;;5093280;28;20230;-66
2021/05/30 03:28:43;;;;;;;19.77;14.47;;;8.80;99.90;;;;;;5094820;28;20204;-66
2021/05/30 03:31:10;;;;;;;18.47;14.90;;;8.70;99.90;;;;;;5097045;28;20600;-66
2021/05/30 03:33:37;;;;;;;18.70;14.37;;;8.60;99.90;;;;;;5097011;28;20277;-66
2021/05/30 03:36:08;;;;;;;21.33;15.43;;;8.50;99.90;;;;;;5096719;28;20402;-66
2021/05/30 03:38:36;;;;;;;22.10;15.70;;;8.50;99.90;;;;;;5096491;28;20735;-66
2021/05/30 03:41:05;;;;;;;22.53;16.17;;;8.60;99.90;;;;;;5096497;28;20738;-65
2021/05/30 03:43:35;;;;;;;20.27;15.50;;;8.60;99.90;;;;;;5096802;28;20208;-65
2021/05/30 03:46:03;;;;;;;19.40;14.67;;;8.70;99.90;;;;;;5083042;28;20465;-65
2021/05/30 03:48:30;;;;;;;18.87;14.57;;;8.80;99.90;;;;;;5076167;28;20668;-66
2021/05/30 03:50:58;;;;;;;20.40;14.43;;;8.90;99.90;;;;;;5075796;28;20699;-65
2021/05/30 03:53:26;;;;;;;18.63;15.17;;;9.00;99.90;;;;;;5076352;28;20197;-66
2021/05/30 03:55:54;;;;;;;17.67;13.73;;;9.00;99.90;;;;;;5075873;28;20725;-65
2021/05/30 03:58:21;;;;;;;20.07;14.63;;;9.00;99.90;;;;;;5076111;28;20201;-65
2021/05/30 04:00:49;;;;;;;18.03;13.90;;;9.10;99.90;;;;;;5076230;28;20196;-65
2021/05/30 04:03:16;;;;;;;17.53;13.67;;;9.30;99.90;;;;;;5076121;28;20219;-66
2021/05/30 04:05:44;;;;;;;17.07;13.07;;;9.50;99.90;;;;;;5076072;28;20203;-66
2021/05/30 04:08:11;;;;;;;18.47;13.40;;;9.50;99.90;;;;;;5075861;28;20208;-65
2021/05/30 04:10:42;;;;;;;18.37;13.10;;;9.60;99.90;;;;;;5075734;28;20200;-66
2021/05/30 04:13:09;;;;;;;16.83;13.23;;;9.70;99.90;;;;;;5076029;28;20269;-66
2021/05/30 04:15:37;;;;;;;16.43;13.03;;;9.70;99.90;;;;;;5075898;28;20203;-65
2021/05/30 04:18:05;;;;;;;16.60;13.60;;;9.70;99.90;;;;;;5075814;28;20212;-66
2021/05/30 04:20:33;;;;;;;15.43;12.57;;;9.60;99.90;;;;;;5075968;28;20314;-66
2021/05/30 04:23:00;;;;;;;16.17;12.80;;;9.60;99.90;;;;;;5075309;28;20197;-67
2021/05/30 04:25:27;;;;;;;17.87;13.10;;;9.70;99.90;;;;;;5075739;28;20197;-66
2021/05/30 04:27:55;;;;;;;16.47;13.30;;;9.70;99.90;;;;;;5075764;28;20197;-67
2021/05/30 04:30:22;;;;;;;17.70;13.50;;;9.90;99.90;;;;;;5075655;28;20203;-66
2021/05/30 04:32:50;;;;;;;18.80;12.90;;;10.00;99.90;;;;;;5075982;28;20197;-66
2021/05/30 04:35:18;;;;;;;17.30;11.87;;;10.10;99.90;;;;;;5075679;28;20207;-67
2021/05/30 04:37:45;;;;;;;16.63;12.77;;;10.20;99.90;;;;;;5075130;28;20216;-66
2021/05/30 04:40:14;;;;;;;16.03;11.50;;;10.30;99.90;;;;;;5073916;28;20665;-66
2021/05/30 04:42:41;;;;;;;17.90;12.67;;;10.40;99.90;;;;;;5075535;28;20240;-65
2021/05/30 04:45:09;;;;;;;14.67;12.43;;;10.50;99.90;;;;;;5081191;28;20200;-66
2021/05/30 04:47:36;;;;;;;15.00;12.10;;;10.60;99.90;;;;;;5092259;28;20197;-66
2021/05/30 04:50:05;;;;;;;13.90;11.97;;;10.60;99.90;;;;;;5071668;28;20225;-66
2021/05/30 04:52:38;;;;;;;13.97;11.00;;;11.00;99.90;;;;;;5074791;28;20232;-67
2021/05/30 04:55:09;;;;;;;10.60;9.13;;;12.80;99.90;;;;;;5075222;28;20207;-65
2021/05/30 04:57:37;;;;;;;11.57;9.15;;;;;;;;;;5075137;28;20211;-66
2021/05/30 05:00:05;;;;;;;9.85;8.80;;;;;;;;;;5075025;28;20200;-65
2021/05/30 05:02:33;;;;;;;10.75;9.23;;;;;;;;;;5075257;28;20197;-65
2021/05/30 05:05:01;;;;;;;10.13;8.70;;;;;;;;;;5075051;28;20197;-65
2021/05/30 05:07:28;;;;;;;9.65;8.65;;;;;;;;;;5074227;28;20196;-66
2021/05/30 05:09:57;;;;;;;10.55;9.52;;;;;;;;;;5072297;28;20200;-66
2021/05/30 05:12:25;;;;;;;10.05;9.10;;;;;;;;;;5074798;28;20288;-66
2021/05/30 05:14:52;;;;;;;9.70;8.68;;;;;;;;;;5074718;28;20219;-67
2021/05/30 05:17:20;;;;;;;10.68;9.70;;;;;;;;;;5074284;28;20216;-65
2021/05/30 05:19:48;;;;;;;11.48;9.90;;;;;;;;;;5074221;28;20199;-66
2021/05/30 05:22:16;;;;;;;10.85;9.85;;;;;;;;;;5071461;28;20197;-65
2021/05/30 05:24:59;;;;;;;10.32;9.23;;;;;;;;;;5054616;28;20614;-66
2021/05/30 05:27:27;;;;;;;13.15;10.00;;;;;;;;;;5054585;28;20193;-65
2021/05/30 05:29:55;;;;;;;10.43;9.32;;;;;;;;;;5054273;28;20202;-66
2021/05/30 05:32:23;;;;;;;10.63;9.55;;;;;;;;;;5054773;28;20197;-67
2021/05/30 05:34:50;;;;;;;12.88;10.10;;;;;;;;;;5070802;28;20280;-65
2021/05/30 05:37:18;;;;;;;10.52;9.43;;;;;;;;;;5073479;28;20308;-66
2021/05/30 05:39:46;;;;;;;12.40;10.45;;;;;;;;;;5073510;28;20203;-66
2021/05/30 05:42:14;;;;;;;11.52;9.55;;;17.00;99.90;;;;;;5073748;28;20720;-66
2021/05/30 05:44:41;;;;;;;10.95;9.85;;;16.30;99.90;;;;;;5076441;28;20300;-66
2021/05/30 05:47:08;;;;;;;12.45;10.27;;;15.70;99.90;;;;;;5093926;28;20200;-65
2021/05/30 05:49:36;;;;;;;12.93;10.65;;;15.30;99.90;;;;;;5094318;28;20291;-66
2021/05/30 05:52:04;;;;;;;11.35;9.90;;;15.10;99.90;;;;;;5093342;28;20258;-66
2021/05/30 05:54:48;;;;;;;11.13;9.57;;;14.80;99.90;;;;;;5093579;28;20215;-65
2021/05/30 05:57:17;;;;;;;11.13;9.40;;;14.80;99.90;;;;;;5094043;28;20314;-66
2021/05/30 05:59:44;;;;;;;12.17;9.33;;;14.60;99.90;;;;;;5093793;28;20235;-66
2021/05/30 06:02:13;;;;;;;11.20;9.33;;;14.50;99.90;;;;;;5093797;28;20299;-65
2021/05/30 06:04:43;;;;;;;11.00;9.53;;;14.60;99.90;;;;;;5093917;28;20286;-66
2021/05/30 06:07:10;;;;;;;12.70;10.20;;;14.80;99.90;;;;;;5093297;28;20192;-61
2021/05/30 06:09:38;;;;;;;10.50;9.40;;;14.70;99.90;;;;;;5093846;28;20232;-60
2021/05/30 06:12:07;;;;;;;11.73;9.23;;;14.60;99.90;;;;;;5090854;28;20200;-60
2021/05/30 06:14:35;;;;;;;11.33;10.20;;;14.40;99.90;;;;;;5072918;28;20201;-60
2021/05/30 06:17:03;;;;;;;12.67;9.47;;;14.30;99.90;;;;;;5073251;28;20220;-61
2021/05/30 06:19:31;;;;;;;12.40;10.33;;;14.30;99.90;;;;;;5067022;28;20211;-61
2021/05/30 06:22:00;;;;;;;11.50;9.60;;;14.30;99.90;;;;;;5071244;28;20768;-60
2021/05/30 06:24:28;;;;;;;10.93;8.70;;;14.30;99.90;;;;;;5093122;28;20286;-59
2021/05/30 06:26:56;;;;;;;10.33;7.60;;;14.20;99.90;;;;;;5093246;28;20200;-61
2021/05/30 06:29:23;;;;;;;8.50;6.80;;;14.30;99.90;;;;;;5093056;28;20662;-61
2021/05/30 06:31:52;;;;;;;9.97;7.80;;;14.30;99.90;;;;;;5093020;28;20206;-62
2021/05/30 06:34:23;;;;;;;9.43;6.90;;;14.40;99.90;;;;;;5092902;28;20644;-60
2021/05/30 06:36:52;;;;;;;8.53;6.37;;;14.40;99.90;;;;;;5053286;28;20207;-60
2021/05/30 06:39:20;;;;;;;8.80;6.80;;;14.50;99.90;;;;;;5052907;28;20243;-59
2021/05/30 06:41:47;;;;;;;8.80;6.67;;;14.50;99.90;;;;;;5052376;28;20215;-60
2021/05/30 06:44:15;;;;;;;7.13;6.33;;;14.60;99.90;;;;;;5055766;28;20200;-60
2021/05/30 06:46:42;;;;;;;7.73;5.80;;;14.70;99.90;;;;;;5084324;28;20196;-60
2021/05/30 06:49:10;;;;;;;7.13;6.23;;;14.60;99.90;;;;;;5071301;28;20205;-61
2021/05/30 06:51:37;;;;;;;6.63;5.90;;;14.40;99.90;;;;;;5071452;28;20212;-60
2021/05/30 06:54:06;;;;;;;7.93;5.97;;;14.40;99.90;;;;;;5071847;28;20854;-61
2021/05/30 06:56:33;;;;;;;7.83;5.17;;;14.50;99.90;;;;;;5072260;28;20285;-61
2021/05/30 06:59:01;;;;;;;6.17;5.57;;;14.60;99.90;;;;;;5071349;28;20682;-60
2021/05/30 07:01:29;;;;;;;5.43;4.93;;;14.50;99.90;;;;;;5071967;28;20193;-60
2021/05/30 07:03:56;;;;;;;5.50;4.80;;;14.50;99.90;;;;;;5070923;28;20686;-60
2021/05/30 07:06:25;;;;;;;6.97;5.10;;;14.50;99.90;;;;;;5071061;28;20193;-61
2021/05/30 07:08:52;;;;;;;5.00;4.50;;;14.60;99.90;;;;;;5072027;28;20189;-61
2021/05/30 07:11:19;;;;;;;6.18;4.60;;;14.70;99.90;;;;;;5071719;28;20736;-59
2021/05/30 07:13:47;;;;;;;4.90;4.28;;;14.70;99.90;;;;;;5072309;28;20258;-61
2021/05/30 07:16:14;;;;;;;6.47;4.35;;;14.70;99.90;;;;;;5071426;28;20606;-59
2021/05/30 07:18:42;;;;;;;5.13;4.30;;;14.70;99.90;;;;;;5071759;28;20255;-60
2021/05/30 07:21:09;;;;;;;5.85;4.60;;;14.70;99.90;;;;;;5071586;28;20200;-60
2021/05/30 07:23:38;;;;;;;6.77;4.87;;;14.50;99.90;;;;;;5071948;28;20197;-59
2021/05/30 07:26:06;;;;;;;5.63;4.60;;;14.50;99.90;;;;;;5071708;28;20201;-61
2021/05/30 07:28:33;;;;;;;5.13;4.43;;;14.50;99.90;;;;;;5071420;28;20311;-60
2021/05/30 07:31:01;;;;;;;5.93;4.47;;;14.40;99.90;;;;;;5071796;28;20201;-60
2021/05/30 07:33:29;;;;;;;5.67;4.00;;;14.40;99.90;;;;;;5071981;28;20204;-62
2021/05/30 07:35:56;;;;;;;6.30;4.17;;;14.40;99.90;;;;;;5071836;28;20262;-61
2021/05/30 07:38:24;;;;;;;4.60;3.87;;;14.50;99.90;;;;;;5071565;28;20680;-61
2021/05/30 07:40:52;;;;;;;4.23;3.73;;;14.40;99.90;;;;;;5072166;28;20295;-60
2021/05/30 07:43:20;;;;;;;5.07;3.80;;;14.40;99.90;;;;;;5071712;28;20211;-60
2021/05/30 07:45:47;;;;;;;5.18;4.10;;;14.50;99.90;;;;;;5083170;28;20192;-60
2021/05/30 07:48:14;;;;;;;3.17;2.87;;;14.60;99.90;;;;;;5090322;28;20235;-60
2021/05/30 07:50:42;;;;;;;3.60;2.90;;;14.50;99.90;;;;;;5071484;28;20534;-60
2021/05/30 07:53:09;;;;;;;3.20;2.90;;;14.40;99.90;;;;;;5071675;28;20272;-60
2021/05/30 07:55:36;;;;;;;5.10;2.80;;;14.30;99.90;;;;;;5071789;28;20232;-61
2021/05/30 07:58:05;;;;;;;3.73;3.00;;;14.40;99.90;;;;;;5071556;28;20227;-61
2021/05/30 08:00:32;;;;;;;3.27;2.80;;;14.40;99.90;;;;;;5071495;28;20703;-60
2021/05/30 08:02:59;;;;;;;3.50;2.90;;;14.40;99.90;;;;;;5071439;28;20236;-60
2021/05/30 08:05:27;;;;;;;4.60;3.33;;;14.40;99.90;;;;;;5071349;28;20602;-60
2021/05/30 08:07:55;;;;;;;3.90;3.30;;;14.50;99.90;;;;;;5071392;28;20284;-60
2021/05/30 08:10:24;;;;;;;5.13;2.97;;;14.60;99.90;;;;;;5071855;28;20201;-61
2021/05/30 08:12:51;;;;;;;3.47;2.60;;;14.70;99.90;;;;;;5071736;28;20292;-59
2021/05/30 08:15:22;;;;;;;5.05;3.10;;;14.60;99.90;;;;;;5073843;28;20196;-60
2021/05/30 08:17:52;;;;;;;3.75;2.90;;;14.70;99.90;;;;;;5075210;28;20692;-60
2021/05/30 08:20:21;;;;;;;3.97;2.63;;;14.70;99.90;;;;;;5075413;28;20235;-60
2021/05/30 08:22:49;;;;;;;4.43;3.03;;;14.80;99.90;;;;;;5075376;28;20664;-60
2021/05/30 08:25:18;;;;;;;4.20;2.80;;;14.90;99.90;;;;;;5077855;28;20228;-59
2021/05/30 08:27:47;;;;;;;3.83;2.90;;;14.90;99.90;;;;;;5076747;28;20209;-59
2021/05/30 08:30:16;;;;;;;5.20;3.17;;;14.90;99.90;;;;;;5074816;28;20690;-60
2021/05/30 08:32:44;;;;;;;3.33;2.90;;;14.90;99.90;;;;;;5075011;28;20203;-60
2021/05/30 08:35:13;;;;;;;5.18;3.00;;;14.90;99.90;;;;;;5074992;28;20205;-60
2021/05/30 08:37:43;;;;;;;3.78;2.80;;;15.00;99.90;;;;;;5074749;28;20205;-60
2021/05/30 08:40:13;;;;;;;3.90;2.70;;;15.00;99.90;;;;;;5075040;28;20201;-60
2021/05/30 08:42:41;;;;;;;3.03;2.70;;;15.00;99.90;;;;;;5075092;28;20228;-60
2021/05/30 08:45:09;;;;;;;3.20;2.63;;;15.20;99.90;;;;;;5080904;28;20286;-60
2021/05/30 08:47:36;;;;;;;3.45;2.60;;;15.30;99.90;;;;;;5095352;28;20287;-62
2021/05/30 08:50:06;;;;;;;3.25;2.63;;;15.30;99.90;;;;;;5077687;28;20315;-60
2021/05/30 08:52:34;;;;;;;2.97;2.67;;;15.30;99.90;;;;;;5074243;28;20239;-60
2021/05/30 08:55:03;;;;;;;3.00;2.70;;;15.30;99.90;;;;;;5074695;28;20265;-60
2021/05/30 08:57:30;;;;;;;4.20;2.83;;;15.30;99.90;;;;;;5074333;28;20742;-60
2021/05/30 08:59:58;;;;;;;4.20;3.10;;;15.20;99.90;;;;;;5074670;28;20284;-60
2021/05/30 09:02:26;;;;;;;3.53;3.00;;;15.30;99.90;;;;;;5074789;28;20239;-59
2021/05/30 09:04:55;;;;;;;4.85;2.83;;;15.40;99.90;;;;;;5074614;28;20298;-59
2021/05/30 09:07:41;;;;;;;3.78;2.45;;;15.30;99.90;;;;;;5074288;28;20208;-60
2021/05/30 09:10:11;;;;;;;3.07;2.77;;;15.40;99.90;;;;;;5074273;28;20189;-60
2021/05/30 09:13:05;;;;;;;4.53;2.67;;;15.40;99.90;;;;;;5074082;28;20235;-60
2021/05/30 09:18:21;;;;;;;3.60;2.70;;;15.70;99.90;;;;;;5074305;28;20227;-60
2021/05/30 09:20:56;;;;;;;3.63;2.45;;;15.60;99.90;;;;;;5073892;28;20543;-60
2021/05/30 09:23:32;;;;;;;2.92;2.38;;;15.70;99.90;;;;;;5074393;28;20276;-61
2021/05/30 09:26:17;;;;;;;2.80;2.30;;;15.80;99.90;;;;;;5073203;28;20201;-60
2021/05/30 09:29:03;;;;;;;3.72;2.55;;;15.70;99.90;;;;;;5074324;28;20193;-60
2021/05/30 09:31:30;;;;;;;3.28;2.20;;;15.80;99.90;;;;;;5073824;28;20199;-61
2021/05/30 09:33:57;;;;;;;3.80;2.50;;;15.90;99.90;;;;;;5073611;28;20606;-60
2021/05/30 09:36:25;;;;;;;4.32;2.85;;;15.90;99.90;;;;;;5073297;28;20209;-60
2021/05/30 09:39:04;;;;;;;3.05;2.35;;;16.10;99.90;;;;;;5073330;28;20711;-61
2021/05/30 09:41:31;;;;;;;5.85;2.90;;;16.20;99.90;;;;;;5073695;28;20712;-61
2021/05/30 09:43:59;;;;;;;3.20;2.40;;;16.30;99.90;;;;;;5073633;28;20258;-60
2021/05/30 09:46:33;;;;;;;2.55;2.35;;;16.40;99.90;;;;;;5090612;28;20207;-59
2021/05/30 09:49:01;;;;;;;2.67;2.20;;;16.20;99.90;;;;;;5093839;28;20184;-60
2021/05/30 09:51:32;;;;;;;3.53;2.33;;;16.20;99.90;;;;;;5093260;28;20227;-60
2021/05/30 09:54:03;;;;;;;3.35;2.35;;;16.40;99.90;;;;;;5094038;28;20204;-60
2021/05/30 09:56:36;;;;;;;2.75;2.55;;;16.50;99.90;;;;;;5093638;28;20235;-60
2021/05/30 09:59:06;;;;;;;2.78;2.55;;;16.50;99.90;;;;;;5093747;28;20306;-60
2021/05/30 10:01:58;;;;;;;3.65;2.75;;;16.60;99.90;;;;;;5093711;28;20196;-60
2021/05/30 10:04:27;;;;;;;5.18;2.97;;;16.70;99.90;;;;;;5093232;28;20257;-59
2021/05/30 10:06:56;;;;;;;3.60;2.67;;;16.90;99.90;;;;;;5093357;28;20299;-60
2021/05/30 10:09:25;;;;;;;3.38;2.88;;;17.00;99.90;;;;;;5093330;28;20329;-60
2021/05/30 10:11:54;;;;;;;3.75;3.10;;;16.90;99.90;;;;;;5093614;28;20208;-60
2021/05/30 10:14:21;;;;;;;3.72;2.80;;;17.00;99.90;;;;;;5093257;28;20224;-60
2021/05/30 10:16:49;;;;;;;3.33;2.55;;;17.00;99.90;;;;;;5073109;28;20200;-60
2021/05/30 10:19:19;;;;;;;3.28;2.90;;;17.00;99.90;;;;;;5072483;28;20607;-60
2021/05/30 10:21:48;;;;;;;3.03;2.75;;;17.00;99.90;;;;;;5072972;28;20197;-60
2021/05/30 10:24:16;;;;;;;3.67;2.50;;;16.90;99.90;;;;;;5073125;28;20204;-60
2021/05/30 10:27:07;;;;;;;3.45;2.80;;;17.00;99.90;;;;;;5073273;28;20200;-60
2021/05/30 10:29:34;;;;;;;4.05;2.50;;;17.10;99.90;;;;;;5073034;28;20184;-60
2021/05/30 10:32:15;;;;;;;3.47;3.00;;;17.20;99.90;;;;;;5072807;28;20204;-60
2021/05/30 10:35:09;;;;;;;3.05;2.58;;;17.30;99.90;;;;;;5072472;28;20185;-60
2021/05/30 10:37:41;;;;;;;3.85;2.55;;;17.40;99.90;;;;;;5072806;28;20204;-59
2021/05/30 10:40:32;;;;;;;5.22;3.58;;;17.30;99.90;;;;;;5072387;28;20217;-61
2021/05/30 10:43:20;;;;;;;4.78;3.72;;;17.40;99.90;;;;;;5072806;28;20271;-59
2021/05/30 10:46:04;;;;;;;2.67;2.38;;;17.40;99.90;;;;;;5083800;28;20224;-60
2021/05/30 10:48:33;;;;;;;3.63;2.70;;;17.40;99.90;;;;;;5074210;28;20196;-59
2021/05/30 10:51:17;;;;;;;3.00;2.70;;;17.50;99.90;;;;;;5071684;28;20243;-64
2021/05/30 10:53:46;;;;;;;5.38;2.80;;;17.50;99.90;;;;;;5072574;28;20292;-60
2021/05/30 10:56:19;;;;;;;3.03;2.72;;;17.40;99.90;;;;;;5072381;28;20224;-60
2021/05/30 10:59:32;;;;;;;3.00;2.65;;;17.50;99.90;;;;;;5072114;28;20296;-60
2021/05/30 11:02:02;;;;;;;3.30;2.58;;;17.80;99.90;;;;;;5071969;28;20648;-59
2021/05/30 11:04:34;;;;;;;4.50;2.90;;;17.80;99.90;;;;;;5071947;28;20296;-61
2021/05/30 11:07:08;;;;;;;5.30;3.08;;;17.90;99.90;;;;;;5072507;28;20217;-60
2021/05/30 11:10:12;;;;;;;3.60;2.92;;;17.90;99.90;;;;;;5072424;28;20264;-61
2021/05/30 11:12:54;;;;;;;3.08;2.40;;;17.90;99.90;;;;;;4990374;28;20722;-60
2021/05/30 11:15:37;;;;;;;3.53;2.50;;;17.80;99.90;;;;;;5065293;28;20617;-60
2021/05/30 11:18:05;;;;;;;3.10;2.78;;;17.60;99.90;;;;;;5072166;28;20226;-61
2021/05/30 11:20:42;;;;;;;5.03;2.92;;;17.80;99.90;;;;;;5071730;28;20308;-60
2021/05/30 11:23:13;;;;;;;3.85;2.47;;;18.00;99.90;;;;;;5072040;28;20184;-59
2021/05/30 11:25:45;;;;;;;3.47;2.60;;;18.10;99.90;;;;;;5072102;28;20280;-59
2021/05/30 11:28:14;;;;;;;2.78;2.40;;;18.00;99.90;;;;;;5072254;28;20231;-60
2021/05/30 11:30:53;;;;;;;3.90;2.40;;;18.00;99.90;;;;;;5071828;28;20201;-61
2021/05/30 11:33:42;;;;;;;2.55;2.35;;;18.10;99.90;;;;;;5072043;28;20184;-60
2021/05/30 11:36:28;;;;;;;3.65;2.25;;;18.00;99.90;;;;;;5072028;28;20191;-61
2021/05/30 11:38:58;;;;;;;3.03;2.10;;;18.20;99.90;;;;;;5071762;28;20201;-60
2021/05/30 11:41:29;;;;;;;3.08;2.13;;;18.40;99.90;;;;;;5072152;28;20197;-60
2021/05/30 11:44:11;;;;;;;4.15;2.40;;;18.50;99.90;;;;;;5071199;28;20192;-59
2021/05/30 11:46:48;;;;;;;2.78;2.17;;;18.60;99.90;;;;;;5090195;28;20711;-60
2021/05/30 11:49:18;;;;;;;2.45;2.22;;;18.50;99.90;;;;;;5092443;28;20188;-60
2021/05/30 11:51:56;;;;;;;4.40;2.55;;;18.30;99.90;;;;;;5095858;28;20259;-59
2021/05/30 11:54:25;;;;;;;2.53;2.22;;;18.00;99.90;;;;;;5096355;28;20190;-59
2021/05/30 11:56:57;;;;;;;3.10;2.40;;;18.20;99.90;;;;;;5095745;28;20726;-60
2021/05/30 11:59:28;;;;;;;2.67;2.38;;;18.30;99.90;;;;;;5095851;28;20218;-59
2021/05/30 12:01:56;;;;;;;2.92;2.25;;;18.50;99.90;;;;;;5095579;28;20211;-60
2021/05/30 12:04:32;;;;;;;3.92;2.50;;;18.60;99.90;;;;;;5095736;28;20204;-61
2021/05/30 12:06:59;;;;;;;3.17;2.50;;;18.60;99.90;;;;;;5095780;28;20180;-59
2021/05/30 12:09:51;;;;;;;3.42;2.53;;;18.60;99.90;;;;;;5082961;28;20217;-59
2021/05/30 12:12:31;;;;;;;3.25;1.83;;;18.30;99.90;;;;;;5075249;28;20189;-60
2021/05/30 12:15:11;;;;;;;2.55;2.33;;;18.40;99.90;;;;;;5075333;28;20189;-59
2021/05/30 12:17:43;;;;;;;2.85;2.35;;;18.30;99.90;;;;;;5075361;28;20881;-61
2021/05/30 12:20:17;;;;;;;3.30;2.35;;;18.20;99.90;;;;;;5075198;28;20201;-60
2021/05/30 12:22:45;;;;;;;3.70;2.13;;;18.40;99.90;;;;;;5075365;28;20206;-59
2021/05/30 12:25:14;;;;;;;3.83;2.17;;;18.40;99.80;;;;;;5075262;28;20300;-59
2021/05/30 12:27:42;;;;;;;2.83;2.03;;;18.40;99.90;;;;;;5075581;28;20204;-59
2021/05/30 12:30:12;;;;;;;2.30;2.10;;;18.50;99.50;;;;;;5075327;28;20197;-60
2021/05/30 12:32:49;;;;;;;3.45;2.28;;;18.70;99.10;;;;;;5074964;28;20203;-60
2021/05/30 12:35:17;;;;;;;3.60;2.45;;;18.90;98.80;;;;;;5075381;28;20188;-61
2021/05/30 12:37:45;;;;;;;2.83;2.15;;;19.00;98.90;;;;;;5075350;28;20204;-59
2021/05/30 12:40:15;;;;;;;2.65;2.00;;;19.00;98.40;;;;;;5074868;28;20772;-60
2021/05/30 12:42:43;;;;;;;2.50;2.30;;;18.80;99.90;;;;;;5075045;28;20556;-60
2021/05/30 12:45:15;;;;;;;2.28;2.08;;;18.80;99.60;;;;;;5081611;28;20200;-59
2021/05/30 12:47:44;;;;;;;5.13;2.47;;;18.80;99.50;;;;;;5076194;28;20203;-59
2021/05/30 12:50:14;;;;;;;2.90;2.28;;;18.90;99.00;;;;;;5075100;28;20295;-60
2021/05/30 12:52:44;;;;;;;3.33;2.40;;;18.90;99.40;;;;;;5074617;28;20220;-60
2021/05/30 12:55:13;;;;;;;2.72;2.05;;;18.90;98.40;;;;;;5075174;28;20281;-60
2021/05/30 12:57:43;;;;;;;3.40;2.30;;;18.90;98.00;;;;;;5075072;28;20292;-60
2021/05/30 13:00:12;;;;;;;2.60;2.15;;;18.90;97.40;;;;;;5074280;28;20703;-60
2021/05/30 13:02:40;;;;;;;2.75;2.10;;;19.20;97.20;;;;;;5073268;28;20212;-60